Akhmed Mahmudov — 9HZS8 — position and weather

sailwx.info

Track history (hours):
 
Tides and Currents Weather Stations Pressure Air Temp Water Temp Dewpoint Dewpoint Depression Visibility Wind Speed Wind Dir Waves Ship Positions

Akhmed Mahmudov

Last reported at 2018-Feb-12 05:50 UTC. Time now 2018-Feb-19 20:08 UTC.
Position N 39°05' E 003°02'.

Length 121 m; draft 5.1 m.

Type: Ship. MMSI: 256652000.

Date/timePositionNaut miles runAvg speedWind from/ knotsBaromVisibWave heightAir tempDewpointWater temp
2018-Feb-12 05:50N 39°05' E 003°02'3 8.4
2018-Feb-12 05:30N 39°03' E 002°60'4 8.5
2018-Feb-12 05:01N 39°01' E 002°55'6 8.5
2018-Feb-12 04:20N 38°59' E 002°48'4 8.7
2018-Feb-12 03:55N 38°58' E 002°44'4 8.7
2018-Feb-12 03:30N 38°56' E 002°39'5 8.9
2018-Feb-12 02:58N 38°54' E 002°34'166 9.3
2018-Feb-11 09:07N 37°27' W 000°25'18 8.5
2018-Feb-11 07:03N 37°16' W 000°42'1 8.3
2018-Feb-11 06:58N 37°16' W 000°43'231 8.4
2018-Feb-10 03:24N 35°59' W 005°15'511.8
2018-Feb-10 03:01N 35°59' W 005°21'612.1
2018-Feb-10 02:31N 35°57' W 005°28'287 7.5
2018-Feb-08 12:30N 39°04' W 010°02'  
2018-Feb-05 09:10N 43°50' W 005°51'2 8.2
2018-Feb-05 08:57N 43°51' W 005°49'5 8.1
2018-Feb-05 08:23N 43°52' W 005°43'14 7.7
2018-Feb-05 06:36N 43°55' W 005°24'1 7.3
2018-Feb-05 06:28N 43°55' W 005°23'10 7.8
2018-Feb-05 05:09N 43°55' W 005°09'2 8.3
2018-Feb-05 04:52N 43°55' W 005°05'99 7.4
2018-Feb-04 15:29N 43°57' W 002°48'4 7.4
2018-Feb-04 15:00N 43°57' W 002°43'4 7.3
2018-Feb-04 14:30N 43°57' W 002°38'4 7.3
2018-Feb-04 14:00N 43°57' W 002°33'4 7.0
2018-Feb-04 13:30N 43°57' W 002°28'4 7.3
2018-Feb-04 13:00N 43°58' W 002°23'4 7.3
2018-Feb-04 12:30N 43°58' W 002°18'4 7.2
2018-Feb-04 12:00N 43°58' W 002°13'4 7.3
2018-Feb-04 11:30N 43°58' W 002°08'8 5.6
2018-Feb-04 10:00N 44°03' W 001°59'184 4.6
2018-Feb-02 18:24N 47°06' W 002°24'3 7.8
2018-Feb-02 18:01N 47°08' W 002°21'4 8.7
2018-Feb-02 17:30N 47°12' W 002°17'4 8.5
2018-Feb-02 17:00N 47°15' W 002°13'1 2.2
2018-Feb-02 16:23N 47°16' W 002°12'0 0.5
2018-Feb-02 15:28N 47°17' W 002°12'0 0.0
2018-Feb-02 14:22N 47°17' W 002°12'0 0.0
2018-Feb-02 13:58N 47°17' W 002°12'0 0.0
2018-Feb-02 13:28N 47°17' W 002°12'0 0.0
2018-Feb-02 12:55N 47°17' W 002°12'0 0.0
2018-Feb-02 12:25N 47°17' W 002°12'0 0.0
2018-Feb-02 11:55N 47°17' W 002°12'0 0.0
2018-Feb-02 11:25N 47°17' W 002°12'0 0.0
2018-Feb-02 10:58N 47°17' W 002°12'0 0.0
2018-Feb-02 10:28N 47°17' W 002°12'0 0.0
2018-Feb-02 09:58N 47°17' W 002°12'0 0.0
2018-Feb-02 09:28N 47°17' W 002°12'0 0.0
2018-Feb-02 08:58N 47°17' W 002°12'0 0.0
2018-Feb-02 08:28N 47°17' W 002°12'0 0.0
2018-Feb-02 07:55N 47°17' W 002°12'0 0.0
2018-Feb-02 07:28N 47°17' W 002°12'0 0.0
2018-Feb-02 06:58N 47°17' W 002°12'0 0.0
2018-Feb-02 06:28N 47°17' W 002°12'0 0.0
2018-Feb-02 05:55N 47°17' W 002°12'  
Track history (hours):
 
Tides and Currents Weather Stations Pressure Air Temp Water Temp Dewpoint Dewpoint Depression Visibility Wind Speed Wind Dir Waves Ship Positions

Akhmed Mahmudov

Last reported at 2018-Feb-12 05:50 UTC. Time now 2018-Feb-19 20:08 UTC.
Position N 39°05' E 003°02'.

Length 121 m; draft 5.1 m.

Type: Ship. MMSI: 256652000.

Date/timePositionNaut miles runAvg speedWind from/ knotsBaromVisibWave heightAir tempDewpointWater temp
2018-Feb-12 05:50N 39°05' E 003°02'3 8.4
2018-Feb-12 05:30N 39°03' E 002°60'4 8.5
2018-Feb-12 05:01N 39°01' E 002°55'6 8.5
2018-Feb-12 04:20N 38°59' E 002°48'4 8.7
2018-Feb-12 03:55N 38°58' E 002°44'4 8.7
2018-Feb-12 03:30N 38°56' E 002°39'5 8.9
2018-Feb-12 02:58N 38°54' E 002°34'166 9.3
2018-Feb-11 09:07N 37°27' W 000°25'18 8.5
2018-Feb-11 07:03N 37°16' W 000°42'1 8.3
2018-Feb-11 06:58N 37°16' W 000°43'231 8.4
2018-Feb-10 03:24N 35°59' W 005°15'511.8
2018-Feb-10 03:01N 35°59' W 005°21'612.1
2018-Feb-10 02:31N 35°57' W 005°28'287 7.5
2018-Feb-08 12:30N 39°04' W 010°02'  
2018-Feb-05 09:10N 43°50' W 005°51'2 8.2
2018-Feb-05 08:57N 43°51' W 005°49'5 8.1
2018-Feb-05 08:23N 43°52' W 005°43'14 7.7
2018-Feb-05 06:36N 43°55' W 005°24'1 7.3
2018-Feb-05 06:28N 43°55' W 005°23'10 7.8
2018-Feb-05 05:09N 43°55' W 005°09'2 8.3
2018-Feb-05 04:52N 43°55' W 005°05'99 7.4
2018-Feb-04 15:29N 43°57' W 002°48'4 7.4
2018-Feb-04 15:00N 43°57' W 002°43'4 7.3
2018-Feb-04 14:30N 43°57' W 002°38'4 7.3
2018-Feb-04 14:00N 43°57' W 002°33'4 7.0
2018-Feb-04 13:30N 43°57' W 002°28'4 7.3
2018-Feb-04 13:00N 43°58' W 002°23'4 7.3
2018-Feb-04 12:30N 43°58' W 002°18'4 7.2
2018-Feb-04 12:00N 43°58' W 002°13'4 7.3
2018-Feb-04 11:30N 43°58' W 002°08'8 5.6
2018-Feb-04 10:00N 44°03' W 001°59'184 4.6
2018-Feb-02 18:24N 47°06' W 002°24'3 7.8
2018-Feb-02 18:01N 47°08' W 002°21'4 8.7
2018-Feb-02 17:30N 47°12' W 002°17'4 8.5
2018-Feb-02 17:00N 47°15' W 002°13'1 2.2
2018-Feb-02 16:23N 47°16' W 002°12'0 0.5
2018-Feb-02 15:28N 47°17' W 002°12'0 0.0
2018-Feb-02 14:22N 47°17' W 002°12'0 0.0
2018-Feb-02 13:58N 47°17' W 002°12'0 0.0
2018-Feb-02 13:28N 47°17' W 002°12'0 0.0
2018-Feb-02 12:55N 47°17' W 002°12'0 0.0
2018-Feb-02 12:25N 47°17' W 002°12'0 0.0
2018-Feb-02 11:55N 47°17' W 002°12'0 0.0
2018-Feb-02 11:25N 47°17' W 002°12'0 0.0
2018-Feb-02 10:58N 47°17' W 002°12'0 0.0
2018-Feb-02 10:28N 47°17' W 002°12'0 0.0
2018-Feb-02 09:58N 47°17' W 002°12'0 0.0
2018-Feb-02 09:28N 47°17' W 002°12'0 0.0
2018-Feb-02 08:58N 47°17' W 002°12'0 0.0
2018-Feb-02 08:28N 47°17' W 002°12'0 0.0
2018-Feb-02 07:55N 47°17' W 002°12'0 0.0
2018-Feb-02 07:28N 47°17' W 002°12'0 0.0
2018-Feb-02 06:58N 47°17' W 002°12'0 0.0
2018-Feb-02 06:28N 47°17' W 002°12'0 0.0
2018-Feb-02 05:55N 47°17' W 002°12'  

Dump ship's entire track history